Terminal Aerodrome Forecast
Issued by NWS

Home | Current Version | Previous Version | Graphics & Text | Print | Product List | Glossary On
Versions: 1 2 3 4 5 6 7 8 9 10 11 12 13 14
000
FTUS43 KMPX 161733
TAFAXN
TAF
KAXN 161733Z 1618/1718 14015G23KT P6SM OVC005
     FM162100 15021G30KT P6SM OVC010
     FM171000 16013KT P6SM OVC010=

USA.gov is the U.S. government's official web portal to all federal, state and local government web resources and services.